Time;durP1;ratioP1;P1;durP2;ratioP2;P2;SDS_P1;SDS_P2;PMS_P1;PMS_P2;Temp;Humidity;BMP_temperature;BMP_pressure;BME280_temperature;BME280_humidity;BME280_pressure;Samples;Min_cycle;Max_cycle;Signal;HPM_P1;HPM_P2
2023/04/28 00:00:17;;;;;;;4.90;4.07;;;13.50;99.90;;;;;;5067713;28;20552;-72
2023/04/28 00:02:43;;;;;;;4.10;3.70;;;13.60;99.90;;;;;;5052251;28;20423;-72
2023/04/28 00:05:08;;;;;;;4.50;3.37;;;13.70;99.90;;;;;;5052354;28;20438;-72
2023/04/28 00:07:34;;;;;;;4.03;3.63;;;13.80;99.90;;;;;;5052176;28;20173;-72
2023/04/28 00:09:59;;;;;;;4.83;3.63;;;13.80;99.90;;;;;;5053730;28;20227;-72
2023/04/28 00:12:25;;;;;;;3.40;3.10;;;13.90;99.90;;;;;;5055938;28;20617;-72
2023/04/28 00:14:50;;;;;;;4.93;3.50;;;13.90;99.90;;;;;;5056079;28;20173;-72
2023/04/28 00:17:16;;;;;;;4.30;3.90;;;14.00;99.90;;;;;;5056487;28;20168;-74
2023/04/28 00:19:41;;;;;;;8.93;4.37;;;13.90;99.90;;;;;;5055993;28;20167;-73
2023/04/28 00:22:07;;;;;;;4.10;3.80;;;13.80;99.90;;;;;;5055647;28;20563;-72
2023/04/28 00:24:35;;;;;;;4.27;3.87;;;13.90;99.90;;;;;;5056286;28;20646;-73
2023/04/28 00:27:01;;;;;;;5.07;3.30;;;13.90;99.90;;;;;;5055938;28;20160;-73
2023/04/28 00:29:28;;;;;;;5.00;4.50;;;14.00;99.90;;;;;;5055224;28;20475;-70
2023/04/28 00:31:53;;;;;;;5.10;4.60;;;14.00;99.90;;;;;;5055549;28;20808;-73
2023/04/28 00:34:19;;;;;;;5.93;4.00;;;14.00;99.90;;;;;;5055550;28;20407;-72
2023/04/28 00:36:45;;;;;;;5.93;5.33;;;14.10;99.90;;;;;;5055349;28;20168;-71
2023/04/28 00:39:10;;;;;;;5.83;5.10;;;14.10;99.90;;;;;;5055744;28;20162;-72
2023/04/28 00:41:36;;;;;;;5.20;4.70;;;14.20;99.90;;;;;;5069227;23;20696;-75
2023/04/28 00:44:01;;;;;;;5.73;5.23;;;14.20;99.90;;;;;;5055963;28;20157;-75
2023/04/28 00:46:30;;;;;;;5.43;4.83;;;14.10;99.90;;;;;;5056184;28;20633;-75
2023/04/28 00:48:56;;;;;;;6.77;5.70;;;14.00;99.90;;;;;;5056198;28;20164;-75
2023/04/28 00:51:22;;;;;;;6.57;5.37;;;14.00;99.90;;;;;;5056500;28;20948;-75
2023/04/28 00:53:50;;;;;;;5.70;5.13;;;14.00;99.90;;;;;;5054527;28;20415;-75
2023/04/28 00:56:16;;;;;;;6.30;4.77;;;14.00;99.90;;;;;;5051781;28;20469;-75
2023/04/28 00:58:42;;;;;;;7.00;4.60;;;14.10;99.90;;;;;;5042713;28;20416;-75
2023/04/28 01:01:09;;;;;;;4.73;4.30;;;14.00;99.90;;;;;;5069244;28;20196;-75
2023/04/28 01:03:36;;;;;;;4.50;4.10;;;14.10;99.90;;;;;;5056009;28;20858;-74
2023/04/28 01:06:04;;;;;;;5.00;4.30;;;14.20;99.90;;;;;;5071411;28;20794;-74
2023/04/28 01:08:31;;;;;;;5.57;4.37;;;14.10;99.90;;;;;;5055574;28;20855;-75
2023/04/28 01:10:56;;;;;;;5.27;4.70;;;14.10;99.90;;;;;;5070951;28;20862;-75
2023/04/28 01:13:22;;;;;;;5.67;4.90;;;14.00;99.90;;;;;;5044134;28;20465;-75
2023/04/28 01:15:48;;;;;;;5.80;4.37;;;14.00;99.90;;;;;;5035439;28;20236;-75
2023/04/28 01:18:15;;;;;;;5.97;4.27;;;14.00;99.90;;;;;;5035905;28;20201;-75
2023/04/28 01:20:40;;;;;;;5.50;4.30;;;13.90;99.90;;;;;;5035676;28;20546;-75
2023/04/28 01:23:11;;;;;;;6.47;4.67;;;13.90;99.90;;;;;;5034596;28;20437;-75
2023/04/28 01:25:37;;;;;;;4.60;4.20;;;13.80;99.90;;;;;;5035963;28;20147;-75
2023/04/28 01:28:03;;;;;;;8.50;4.80;;;13.90;99.90;;;;;;5038680;28;20419;-74
2023/04/28 01:30:28;;;;;;;4.37;3.90;;;13.80;99.90;;;;;;5054218;28;20184;-75
2023/04/28 01:32:54;;;;;;;5.27;4.47;;;13.90;99.90;;;;;;5055778;28;20741;-74
2023/04/28 01:35:19;;;;;;;8.57;4.77;;;14.00;99.90;;;;;;5055011;28;20249;-74
2023/04/28 01:37:45;;;;;;;6.30;4.50;;;14.00;99.90;;;;;;5055759;28;20253;-74
2023/04/28 01:40:11;;;;;;;4.67;4.27;;;14.00;99.90;;;;;;5055891;28;20170;-74
2023/04/28 01:42:37;;;;;;;5.73;3.93;;;14.00;99.90;;;;;;5055016;28;20210;-74
2023/04/28 01:45:04;;;;;;;6.30;3.80;;;14.00;99.90;;;;;;5070706;28;20417;-75
2023/04/28 01:47:30;;;;;;;4.93;4.53;;;13.90;99.90;;;;;;5070464;28;20173;-74
2023/04/28 01:49:55;;;;;;;5.63;5.13;;;14.00;99.90;;;;;;5054584;28;20484;-74
2023/04/28 01:52:23;;;;;;;5.00;4.23;;;14.00;99.90;;;;;;5054627;28;20452;-74
2023/04/28 01:54:51;;;;;;;5.60;4.30;;;14.10;99.90;;;;;;5055223;28;20164;-74
2023/04/28 01:57:17;;;;;;;6.27;4.80;;;14.00;99.90;;;;;;5070041;28;20420;-74
2023/04/28 01:59:42;;;;;;;7.67;4.27;;;14.00;99.90;;;;;;5054393;28;20805;-74
2023/04/28 02:02:08;;;;;;;4.70;4.30;;;13.80;99.90;;;;;;5054390;28;20296;-74
2023/04/28 02:04:33;;;;;;;5.23;4.17;;;13.90;99.90;;;;;;5069380;28;20679;-74
2023/04/28 02:06:59;;;;;;;4.80;3.90;;;14.00;99.90;;;;;;5069405;28;20178;-74
2023/04/28 02:09:24;;;;;;;4.63;4.13;;;14.00;99.90;;;;;;5054578;28;20242;-74
2023/04/28 02:11:50;;;;;;;6.17;4.80;;;14.00;99.90;;;;;;5053981;28;20316;-74
2023/04/28 02:14:16;;;;;;;4.13;3.67;;;14.10;99.90;;;;;;5054014;28;20660;-74
2023/04/28 02:16:41;;;;;;;5.80;4.57;;;14.10;99.90;;;;;;5053930;28;20166;-74
2023/04/28 02:19:07;;;;;;;5.73;4.57;;;14.00;99.90;;;;;;5069363;28;20224;-75
2023/04/28 02:21:33;;;;;;;5.60;4.80;;;14.00;99.90;;;;;;5053616;28;20200;-74
2023/04/28 02:23:58;;;;;;;5.83;5.10;;;14.00;99.90;;;;;;5069232;28;20170;-74
2023/04/28 02:26:24;;;;;;;5.00;4.20;;;14.00;99.90;;;;;;5053769;28;20169;-73
2023/04/28 02:28:50;;;;;;;5.53;4.10;;;14.10;99.90;;;;;;5053719;28;20179;-73
2023/04/28 02:31:15;;;;;;;5.17;4.63;;;14.10;99.90;;;;;;5068987;28;20422;-74
2023/04/28 02:33:41;;;;;;;5.37;4.87;;;14.20;99.90;;;;;;5052851;28;20170;-74
2023/04/28 02:36:08;;;;;;;5.47;4.60;;;14.30;99.90;;;;;;5053438;28;20173;-74
2023/04/28 02:38:34;;;;;;;5.90;5.30;;;14.40;99.90;;;;;;5054001;28;20167;-75
2023/04/28 02:41:00;;;;;;;4.93;4.30;;;14.30;99.90;;;;;;5053771;28;20491;-74
2023/04/28 02:43:27;;;;;;;8.83;4.83;;;14.30;99.90;;;;;;5053331;28;20951;-74
2023/04/28 02:45:53;;;;;;;7.03;5.27;;;14.20;99.90;;;;;;5053153;28;20397;-75
2023/04/28 02:48:19;;;;;;;3.87;3.53;;;14.20;99.90;;;;;;5053534;28;20416;-74
2023/04/28 02:50:45;;;;;;;6.60;4.67;;;14.20;99.90;;;;;;5053072;28;20404;-74
2023/04/28 02:53:11;;;;;;;5.43;4.93;;;14.30;99.90;;;;;;5053216;28;20516;-74
2023/04/28 02:55:37;;;;;;;8.07;5.10;;;14.40;99.90;;;;;;5068715;28;20168;-74
2023/04/28 02:58:02;;;;;;;4.97;4.57;;;14.30;99.90;;;;;;5053287;28;20455;-74
2023/04/28 03:00:28;;;;;;;5.13;4.70;;;14.30;99.90;;;;;;5057481;28;20174;-75
2023/04/28 03:02:54;;;;;;;6.07;4.93;;;14.30;99.90;;;;;;5033916;28;20594;-74
2023/04/28 03:05:19;;;;;;;11.40;5.23;;;14.30;99.90;;;;;;5039602;28;20552;-75
2023/04/28 03:07:45;;;;;;;6.00;4.80;;;14.20;99.90;;;;;;5053097;28;20216;-75
2023/04/28 03:10:11;;;;;;;6.20;4.60;;;14.20;99.90;;;;;;5053318;28;20240;-75
2023/04/28 03:12:36;;;;;;;7.03;4.97;;;14.30;99.90;;;;;;5052992;28;20189;-75
2023/04/28 03:15:02;;;;;;;5.57;4.73;;;14.40;99.90;;;;;;5047046;28;20176;-75
2023/04/28 03:17:28;;;;;;;6.90;5.07;;;14.40;99.90;;;;;;5031811;28;20172;-75
2023/04/28 03:19:53;;;;;;;5.20;4.40;;;14.30;99.90;;;;;;5032761;28;20751;-75
2023/04/28 03:22:19;;;;;;;6.80;4.57;;;14.30;99.90;;;;;;5031741;28;20704;-74
2023/04/28 03:24:44;;;;;;;5.10;4.60;;;14.40;99.90;;;;;;5031699;28;20167;-75
2023/04/28 03:27:10;;;;;;;6.10;4.17;;;14.40;99.90;;;;;;5032910;28;20164;-75
2023/04/28 03:29:36;;;;;;;5.53;4.30;;;14.30;99.90;;;;;;5032673;28;20539;-74
2023/04/28 03:32:01;;;;;;;4.63;4.23;;;14.20;99.90;;;;;;5033135;28;20566;-75
2023/04/28 03:34:27;;;;;;;4.90;4.40;;;14.30;99.90;;;;;;5032314;28;20652;-75
2023/04/28 03:36:52;;;;;;;6.03;4.57;;;14.20;99.90;;;;;;5068001;28;20542;-75
2023/04/28 03:39:18;;;;;;;5.17;4.67;;;14.10;99.90;;;;;;5068355;28;20174;-75
2023/04/28 03:41:44;;;;;;;6.00;5.40;;;14.10;99.90;;;;;;5052531;28;20210;-75
2023/04/28 03:44:09;;;;;;;5.03;4.50;;;14.00;99.90;;;;;;5067871;28;20635;-75
2023/04/28 03:46:35;;;;;;;5.13;4.73;;;14.10;99.90;;;;;;5071873;28;20201;-75
2023/04/28 03:49:01;;;;;;;5.30;4.80;;;14.20;99.90;;;;;;5056695;28;20168;-75
2023/04/28 03:51:27;;;;;;;7.13;5.00;;;14.20;99.90;;;;;;5056361;28;20199;-75
2023/04/28 03:53:53;;;;;;;5.03;4.53;;;14.20;99.90;;;;;;5056533;28;20464;-75
2023/04/28 03:56:19;;;;;;;5.80;5.20;;;14.10;99.90;;;;;;5056509;28;20405;-75
2023/04/28 03:58:45;;;;;;;4.90;4.30;;;14.10;99.90;;;;;;5056542;28;20418;-75
2023/04/28 04:01:11;;;;;;;5.47;4.90;;;14.10;99.90;;;;;;5056155;28;20197;-75
2023/04/28 04:03:36;;;;;;;6.00;4.53;;;14.00;99.90;;;;;;5056892;28;20194;-74
2023/04/28 04:06:02;;;;;;;5.60;4.57;;;14.00;99.90;;;;;;5056176;28;20180;-74
2023/04/28 04:08:28;;;;;;;3.87;3.50;;;14.00;99.90;;;;;;5056259;28;20177;-75
2023/04/28 04:10:54;;;;;;;4.17;3.77;;;14.00;99.90;;;;;;5056343;28;20170;-75
2023/04/28 04:13:21;;;;;;;4.80;4.00;;;14.00;99.90;;;;;;5056603;28;20528;-75
2023/04/28 04:15:46;;;;;;;5.10;4.00;;;14.10;99.90;;;;;;5056086;28;20408;-75
2023/04/28 04:18:13;;;;;;;4.43;4.03;;;14.10;99.90;;;;;;5056250;28;20467;-74
2023/04/28 04:20:39;;;;;;;3.73;3.43;;;14.00;99.90;;;;;;5071037;28;20703;-74
2023/04/28 04:23:05;;;;;;;4.77;4.20;;;14.00;99.90;;;;;;5056598;28;20550;-74
2023/04/28 04:25:31;;;;;;;4.93;4.20;;;14.00;99.90;;;;;;5056178;28;20218;-74
2023/04/28 04:27:57;;;;;;;5.50;3.80;;;14.00;99.90;;;;;;5071900;28;20205;-74
2023/04/28 04:30:23;;;;;;;4.40;4.00;;;14.10;99.90;;;;;;5071543;28;20403;-74
2023/04/28 04:32:48;;;;;;;3.97;3.60;;;14.00;99.90;;;;;;5056165;28;20658;-74
2023/04/28 04:35:14;;;;;;;7.20;3.40;;;14.00;99.90;;;;;;5055901;28;20178;-74
2023/04/28 04:37:40;;;;;;;4.77;4.27;;;14.10;99.90;;;;;;5056212;28;20178;-74
2023/04/28 04:40:06;;;;;;;5.67;5.27;;;14.10;99.90;;;;;;5056461;28;20185;-74
2023/04/28 04:42:32;;;;;;;48.80;26.90;;;14.00;99.90;;;;;;5056152;28;20235;-74
2023/04/28 04:44:57;;;;;;;8.03;5.47;;;14.00;99.90;;;;;;5056105;28;20404;-74
2023/04/28 04:47:23;;;;;;;6.00;4.40;;;14.10;99.90;;;;;;5054894;28;20224;-74
2023/04/28 04:49:49;;;;;;;5.30;3.97;;;14.30;99.90;;;;;;5056208;28;20173;-74
2023/04/28 04:52:14;;;;;;;4.53;3.30;;;14.30;99.90;;;;;;5050050;28;20203;-73
2023/04/28 04:54:40;;;;;;;5.00;4.20;;;14.30;99.90;;;;;;5046163;28;20416;-73
2023/04/28 04:57:06;;;;;;;5.80;4.40;;;14.40;99.90;;;;;;5034800;28;20232;-73
2023/04/28 04:59:32;;;;;;;4.13;3.67;;;14.40;99.90;;;;;;5034225;28;20175;-72
2023/04/28 05:01:57;;;;;;;5.20;4.53;;;14.40;99.90;;;;;;5035723;28;20464;-73
2023/04/28 05:04:23;;;;;;;4.57;4.17;;;14.40;99.90;;;;;;5036104;28;20167;-73
2023/04/28 05:06:48;;;;;;;3.93;3.60;;;14.30;99.90;;;;;;5055509;28;20158;-72
2023/04/28 05:09:14;;;;;;;6.40;3.90;;;14.20;99.90;;;;;;5055318;28;20177;-73
2023/04/28 05:11:40;;;;;;;4.00;3.70;;;14.20;99.90;;;;;;5055616;28;20205;-73
2023/04/28 05:14:05;;;;;;;4.33;3.70;;;14.20;99.90;;;;;;5055364;28;20180;-72
2023/04/28 05:16:31;;;;;;;5.27;4.80;;;14.20;99.90;;;;;;5055094;28;20168;-72
2023/04/28 05:18:57;;;;;;;7.70;5.17;;;14.20;99.90;;;;;;5055455;28;20197;-72
2023/04/28 05:21:22;;;;;;;6.13;4.33;;;14.20;99.90;;;;;;5055521;28;20423;-72
2023/04/28 05:23:48;;;;;;;7.30;4.90;;;14.20;99.90;;;;;;5041364;28;20174;-72
2023/04/28 05:26:14;;;;;;;5.93;4.90;;;14.10;99.90;;;;;;5035684;28;20234;-72
2023/04/28 05:28:40;;;;;;;5.13;4.63;;;14.10;99.90;;;;;;5033985;28;20422;-73
2023/04/28 05:31:06;;;;;;;4.33;3.93;;;13.90;99.90;;;;;;5033286;28;20232;-73
2023/04/28 05:33:31;;;;;;;6.23;4.90;;;14.00;99.90;;;;;;5050196;28;20495;-71
2023/04/28 05:35:57;;;;;;;5.83;4.20;;;14.10;99.90;;;;;;5042033;28;20266;-73
2023/04/28 05:38:23;;;;;;;7.17;4.97;;;14.00;99.90;;;;;;5054737;28;20159;-73
2023/04/28 05:40:49;;;;;;;5.83;4.00;;;13.90;99.90;;;;;;5069888;28;20196;-73
2023/04/28 05:43:14;;;;;;;5.50;4.60;;;13.90;99.90;;;;;;5054139;28;20992;-72
2023/04/28 05:45:40;;;;;;;6.60;4.83;;;13.90;99.90;;;;;;5054427;28;20165;-72
2023/04/28 05:48:06;;;;;;;6.00;5.40;;;13.90;99.90;;;;;;5054451;28;20534;-72
2023/04/28 05:50:31;;;;;;;5.53;4.77;;;14.10;99.90;;;;;;5053922;28;20190;-73
2023/04/28 05:52:57;;;;;;;5.53;5.03;;;14.20;99.90;;;;;;5069550;28;20521;-73
2023/04/28 05:55:23;;;;;;;5.27;4.77;;;14.40;99.90;;;;;;5054394;28;20207;-73
2023/04/28 05:57:49;;;;;;;7.70;6.70;;;14.30;99.90;;;;;;5054910;28;20816;-73
2023/04/28 06:00:15;;;;;;;5.20;4.70;;;14.20;99.90;;;;;;5054311;28;20204;-73
2023/04/28 06:02:41;;;;;;;4.30;3.90;;;14.40;99.90;;;;;;5054086;28;20278;-73
2023/04/28 06:05:06;;;;;;;6.20;5.13;;;14.50;99.90;;;;;;5053838;28;20858;-72
2023/04/28 06:07:32;;;;;;;7.20;5.10;;;14.50;99.90;;;;;;5068911;28;20176;-72
2023/04/28 06:09:57;;;;;;;5.07;4.53;;;14.40;99.90;;;;;;5053997;28;20168;-72
2023/04/28 06:12:23;;;;;;;6.00;4.63;;;14.20;99.90;;;;;;5053870;28;20191;-72
2023/04/28 06:14:50;;;;;;;4.47;4.07;;;14.30;99.90;;;;;;5054120;28;20198;-72
2023/04/28 06:17:16;;;;;;;5.70;5.20;;;14.20;99.90;;;;;;5054459;28;20166;-74
2023/04/28 06:19:41;;;;;;;5.40;4.90;;;14.10;99.90;;;;;;5053539;28;20434;-74
2023/04/28 06:22:07;;;;;;;6.50;5.23;;;14.10;99.90;;;;;;5053582;28;20211;-73
2023/04/28 06:24:32;;;;;;;5.73;4.40;;;14.20;99.90;;;;;;5053744;28;20173;-74
2023/04/28 06:26:58;;;;;;;5.30;4.83;;;14.40;99.90;;;;;;5053464;28;20176;-74
2023/04/28 06:29:24;;;;;;;7.87;4.40;;;14.30;99.90;;;;;;5054233;28;20254;-73
2023/04/28 06:31:51;;;;;;;5.40;4.87;;;14.10;99.90;;;;;;5053443;28;20221;-73
2023/04/28 06:34:16;;;;;;;5.47;4.80;;;14.10;99.90;;;;;;5053048;28;20169;-74
2023/04/28 06:36:42;;;;;;;4.93;4.17;;;14.10;99.90;;;;;;5052626;28;20413;-74
2023/04/28 06:39:08;;;;;;;4.80;4.37;;;14.20;99.90;;;;;;5045626;28;20199;-73
2023/04/28 06:41:33;;;;;;;7.03;5.50;;;14.30;99.90;;;;;;5054076;23;20239;-72
2023/04/28 06:43:59;;;;;;;4.43;4.00;;;14.20;99.90;;;;;;5013765;28;20162;-70
2023/04/28 06:46:24;;;;;;;5.17;4.73;;;14.50;99.90;;;;;;5013409;28;20206;-71
2023/04/28 06:48:50;;;;;;;4.60;4.10;;;14.50;99.90;;;;;;5013157;28;20193;-72
2023/04/28 06:51:15;;;;;;;5.50;4.67;;;14.50;99.90;;;;;;5013093;28;20602;-71
2023/04/28 06:53:41;;;;;;;6.17;4.03;;;14.60;99.90;;;;;;5013163;28;20195;-71
2023/04/28 06:56:07;;;;;;;4.90;4.50;;;14.80;99.90;;;;;;5013633;28;20193;-73
2023/04/28 06:58:32;;;;;;;5.63;5.13;;;14.80;99.90;;;;;;5013845;28;20549;-73
2023/04/28 07:00:58;;;;;;;5.60;4.77;;;14.80;99.90;;;;;;5014617;28;20677;-72
2023/04/28 07:03:23;;;;;;;5.17;4.77;;;14.70;99.90;;;;;;5013744;28;20687;-70
2023/04/28 07:05:49;;;;;;;10.23;5.10;;;14.80;99.90;;;;;;5012426;28;20193;-73
2023/04/28 07:08:16;;;;;;;5.13;4.63;;;15.00;99.90;;;;;;5012984;28;20181;-71
2023/04/28 07:10:41;;;;;;;5.90;5.40;;;15.00;99.90;;;;;;5013055;28;20165;-71
2023/04/28 07:13:07;;;;;;;5.33;4.83;;;15.00;99.90;;;;;;5013023;28;20436;-71
2023/04/28 07:15:33;;;;;;;5.13;4.73;;;15.00;99.90;;;;;;5013031;28;20202;-72
2023/04/28 07:17:58;;;;;;;4.53;4.13;;;15.10;99.90;;;;;;4995532;28;20174;-72
2023/04/28 07:20:24;;;;;;;5.77;5.17;;;15.10;99.90;;;;;;5017057;28;20249;-72
2023/04/28 07:22:49;;;;;;;5.23;4.70;;;15.00;99.90;;;;;;5019293;28;20203;-71
2023/04/28 07:25:15;;;;;;;5.00;4.47;;;15.00;99.90;;;;;;5018790;28;20245;-71
2023/04/28 07:27:41;;;;;;;5.43;4.83;;;14.90;99.90;;;;;;5019663;28;20626;-72
2023/04/28 07:30:07;;;;;;;4.83;4.30;;;15.00;99.90;;;;;;5019547;28;20166;-73
2023/04/28 07:32:32;;;;;;;5.37;4.53;;;15.20;99.90;;;;;;5019718;28;20198;-72
2023/04/28 07:34:58;;;;;;;4.77;4.30;;;15.30;99.90;;;;;;5017241;28;20768;-72
2023/04/28 07:37:23;;;;;;;5.73;4.90;;;15.50;99.90;;;;;;5019287;28;20179;-72
2023/04/28 07:39:49;;;;;;;6.13;4.97;;;15.70;99.90;;;;;;5019209;28;20639;-71
2023/04/28 07:42:16;;;;;;;6.33;4.73;;;15.70;99.90;;;;;;5019220;28;20280;-71
2023/04/28 07:44:41;;;;;;;3.57;3.27;;;15.80;99.90;;;;;;5019789;28;20407;-71
2023/04/28 07:47:07;;;;;;;5.37;4.27;;;15.80;99.90;;;;;;5019238;28;20402;-71
2023/04/28 07:49:33;;;;;;;4.40;4.00;;;15.60;99.90;;;;;;5019138;28;20282;-71
2023/04/28 07:51:58;;;;;;;4.50;4.10;;;15.60;99.90;;;;;;5019229;28;20426;-72
2023/04/28 07:54:24;;;;;;;4.23;3.57;;;15.70;99.90;;;;;;5019294;28;20555;-72
2023/04/28 07:56:50;;;;;;;5.40;4.27;;;15.60;99.90;;;;;;5019921;28;20620;-71
2023/04/28 07:59:15;;;;;;;4.90;4.50;;;15.40;99.90;;;;;;5019277;28;20162;-71
2023/04/28 08:01:41;;;;;;;4.73;4.23;;;15.40;99.90;;;;;;5019185;28;20638;-72
2023/04/28 08:04:07;;;;;;;5.60;3.93;;;15.40;99.90;;;;;;5019217;28;20627;-70
2023/04/28 08:06:34;;;;;;;6.47;4.20;;;15.10;99.90;;;;;;5018260;28;20424;-70
2023/04/28 08:09:01;;;;;;;5.30;4.80;;;15.20;99.90;;;;;;5019484;28;20166;-70
2023/04/28 08:11:26;;;;;;;4.90;4.50;;;15.10;99.90;;;;;;5018959;28;20472;-70
2023/04/28 08:13:52;;;;;;;4.70;4.30;;;15.00;99.90;;;;;;5019014;28;20591;-71
2023/04/28 08:16:18;;;;;;;4.67;4.10;;;15.00;99.90;;;;;;5017876;28;20174;-71
2023/04/28 08:18:44;;;;;;;4.87;4.13;;;15.00;99.90;;;;;;5019343;28;20248;-71
2023/04/28 08:21:10;;;;;;;5.03;4.63;;;15.00;99.90;;;;;;5018580;28;20160;-71
2023/04/28 08:23:36;;;;;;;4.60;3.73;;;15.00;99.90;;;;;;5018874;28;20536;-71
2023/04/28 08:26:01;;;;;;;4.13;3.73;;;14.80;99.90;;;;;;5019055;28;20161;-71
2023/04/28 08:28:27;;;;;;;4.23;3.83;;;15.00;99.90;;;;;;5017753;28;20556;-71
2023/04/28 08:30:54;;;;;;;4.40;4.00;;;14.90;99.90;;;;;;5018337;28;20216;-71
2023/04/28 08:33:19;;;;;;;4.70;4.20;;;14.90;99.90;;;;;;5014504;28;20218;-71
2023/04/28 08:35:45;;;;;;;6.23;5.13;;;15.00;99.90;;;;;;5015397;28;20412;-71
2023/04/28 08:38:13;;;;;;;7.53;5.10;;;14.90;99.90;;;;;;5015754;28;20169;-71
2023/04/28 08:40:39;;;;;;;6.77;6.03;;;14.90;99.90;;;;;;5016198;28;20171;-71
2023/04/28 08:43:05;;;;;;;9.20;8.40;;;14.90;99.90;;;;;;5015443;28;20470;-71
2023/04/28 08:45:41;;;;;;;10.00;9.00;;;14.60;99.90;;;;;;5014044;28;20853;-70
2023/04/28 08:48:17;;;;;;;12.03;10.83;;;14.30;99.90;;;;;;5015855;28;20921;-71
2023/04/28 08:50:47;;;;;;;11.33;10.23;;;14.00;99.90;;;;;;5015849;28;20411;-71
2023/04/28 08:53:15;;;;;;;8.57;7.77;;;14.00;99.90;;;;;;5015796;28;20459;-71
2023/04/28 08:55:41;;;;;;;9.53;7.77;;;14.20;99.90;;;;;;5015057;28;20416;-70
2023/04/28 08:58:08;;;;;;;8.90;8.20;;;14.30;99.90;;;;;;5015435;28;20966;-71
2023/04/28 09:00:36;;;;;;;9.97;9.07;;;14.30;99.90;;;;;;4997727;28;20412;-71
2023/04/28 09:03:02;;;;;;;8.63;7.83;;;14.50;99.90;;;;;;5013521;28;20456;-71
2023/04/28 09:05:27;;;;;;;6.83;6.23;;;14.70;99.90;;;;;;5015430;28;20841;-71
2023/04/28 09:07:54;;;;;;;9.53;8.73;;;14.80;99.90;;;;;;5014921;28;20170;-71
2023/04/28 09:10:25;;;;;;;7.33;6.73;;;15.00;99.90;;;;;;5015337;28;20242;-71
2023/04/28 09:12:52;;;;;;;7.93;7.23;;;15.10;99.90;;;;;;5015013;28;20429;-71
2023/04/28 09:15:35;;;;;;;8.40;7.60;;;15.30;99.90;;;;;;5014749;28;20407;-71
2023/04/28 09:18:02;;;;;;;11.30;8.80;;;15.50;99.90;;;;;;5015370;28;20403;-71
2023/04/28 09:20:29;;;;;;;11.20;10.17;;;15.70;99.90;;;;;;5014617;28;20545;-71
2023/04/28 09:23:10;;;;;;;9.67;7.07;;;15.50;99.90;;;;;;5014616;28;20462;-71
2023/04/28 09:25:36;;;;;;;6.80;6.10;;;15.60;99.90;;;;;;5014827;28;20393;-71
2023/04/28 09:28:20;;;;;;;8.60;7.90;;;15.70;99.90;;;;;;5014416;28;20413;-71
2023/04/28 09:30:46;;;;;;;6.27;5.67;;;15.70;99.90;;;;;;5014464;28;20150;-71
2023/04/28 09:33:12;;;;;;;5.80;5.30;;;15.80;99.90;;;;;;5014671;28;20433;-71
2023/04/28 09:35:39;;;;;;;6.30;5.70;;;16.00;99.90;;;;;;5014444;28;20411;-71
2023/04/28 09:38:05;;;;;;;6.90;6.20;;;16.20;99.90;;;;;;5014402;28;20582;-71
2023/04/28 09:40:31;;;;;;;14.37;10.43;;;16.20;99.90;;;;;;5014524;28;20447;-70
2023/04/28 09:42:56;;;;;;;14.23;10.27;;;16.40;99.90;;;;;;5013730;28;20777;-71
2023/04/28 09:45:23;;;;;;;12.37;9.40;;;16.60;99.90;;;;;;5014789;28;20190;-71
2023/04/28 09:47:49;;;;;;;11.60;9.60;;;17.00;99.90;;;;;;5014435;28;20187;-71
2023/04/28 09:50:16;;;;;;;6.93;5.50;;;17.20;99.90;;;;;;5014465;28;20525;-72
2023/04/28 09:52:55;;;;;;;6.03;5.53;;;17.70;99.90;;;;;;5014108;28;20423;-71
2023/04/28 09:55:22;;;;;;;9.43;7.57;;;17.80;99.90;;;;;;5014339;28;20394;-71
2023/04/28 09:57:50;;;;;;;8.37;6.70;;;17.40;99.90;;;;;;5014884;28;20490;-71
2023/04/28 10:00:17;;;;;;;6.40;5.80;;;17.80;99.90;;;;;;5014326;28;20813;-71
2023/04/28 10:02:43;;;;;;;8.07;7.20;;;17.50;99.90;;;;;;4996428;28;20518;-71
2023/04/28 10:05:09;;;;;;;22.50;17.33;;;17.50;99.90;;;;;;5014324;28;20407;-71
2023/04/28 10:07:35;;;;;;;10.10;7.30;;;18.10;99.90;;;;;;5013937;28;20403;-71
2023/04/28 10:10:03;;;;;;;4.67;4.20;;;18.20;99.90;;;;;;5014022;28;20773;-71
2023/04/28 10:12:28;;;;;;;7.40;6.63;;;18.20;99.90;;;;;;5014046;28;20434;-72
2023/04/28 10:14:54;;;;;;;5.87;5.20;;;18.60;99.90;;;;;;5013702;28;20438;-71
2023/04/28 10:17:21;;;;;;;5.50;5.00;;;19.10;99.90;;;;;;5013895;28;20172;-72
2023/04/28 10:19:50;;;;;;;5.53;4.73;;;19.20;99.90;;;;;;5013415;28;20175;-71
2023/04/28 10:22:38;;;;;;;4.33;3.93;;;19.60;99.90;;;;;;5013321;28;20454;-71
2023/04/28 10:25:17;;;;;;;3.53;3.00;;;19.20;99.90;;;;;;5012469;28;20391;-72
2023/04/28 10:27:45;;;;;;;1.70;1.60;;;19.20;99.90;;;;;;5012573;28;20819;-70
2023/04/28 10:30:12;;;;;;;2.17;1.97;;;19.00;99.90;;;;;;5010740;28;20418;-71
2023/04/28 10:32:37;;;;;;;2.07;1.77;;;19.20;99.90;;;;;;5013505;28;20505;-71
2023/04/28 10:35:22;;;;;;;2.20;2.00;;;19.30;99.90;;;;;;5013422;28;20404;-71
2023/04/28 10:38:11;;;;;;;2.53;1.80;;;19.40;99.90;;;;;;5013650;28;20591;-71
2023/04/28 10:40:41;;;;;;;3.50;2.07;;;19.20;99.90;;;;;;5013982;28;20391;-71
2023/04/28 10:43:09;;;;;;;1.80;1.60;;;19.30;99.90;;;;;;5013385;28;20469;-72
2023/04/28 10:45:52;;;;;;;2.93;2.33;;;19.10;99.90;;;;;;5012856;28;20419;-71
2023/04/28 10:48:42;;;;;;;3.13;2.00;;;19.40;99.90;;;;;;5012709;28;20407;-70
2023/04/28 10:51:11;;;;;;;2.47;1.97;;;19.50;99.90;;;;;;5010810;28;20504;-71
2023/04/28 10:53:43;;;;;;;3.50;2.40;;;19.20;99.90;;;;;;5013219;28;20810;-71
2023/04/28 10:56:25;;;;;;;2.00;1.70;;;19.20;99.90;;;;;;5012997;28;20773;-71
2023/04/28 10:58:55;;;;;;;1.20;1.10;;;19.30;99.90;;;;;;5013472;28;20438;-71
2023/04/28 11:01:23;;;;;;;3.17;2.30;;;19.10;99.90;;;;;;5012959;28;20460;-71
2023/04/28 11:04:11;;;;;;;2.00;1.50;;;19.40;99.90;;;;;;5013356;28;20412;-70
2023/04/28 11:06:40;;;;;;;1.93;1.30;;;19.70;99.90;;;;;;5012319;28;20423;-70
2023/04/28 11:09:11;;;;;;;3.40;2.67;;;20.00;99.90;;;;;;5013168;28;20863;-71
2023/04/28 11:11:38;;;;;;;2.90;1.40;;;20.10;99.90;;;;;;5013101;28;20557;-71
2023/04/28 11:14:17;;;;;;;3.90;1.60;;;19.90;99.90;;;;;;5013376;28;20414;-70
2023/04/28 11:16:49;;;;;;;2.17;1.10;;;20.00;99.90;;;;;;5013392;28;20860;-70
2023/04/28 11:19:24;;;;;;;1.30;1.03;;;20.30;99.90;;;;;;5013166;28;20414;-71
2023/04/28 11:21:51;;;;;;;3.40;0.83;;;20.00;99.90;;;;;;5011596;28;20450;-71
2023/04/28 11:24:17;;;;;;;3.63;1.10;;;19.60;99.90;;;;;;5013068;28;20400;-71
2023/04/28 11:26:43;;;;;;;2.77;1.43;;;19.40;99.90;;;;;;5013086;28;20406;-71
2023/04/28 11:29:10;;;;;;;2.13;1.00;;;19.60;99.90;;;;;;5011679;28;20469;-71
2023/04/28 11:31:37;;;;;;;1.37;0.80;;;19.60;99.90;;;;;;5013286;28;20407;-72
2023/04/28 11:34:17;;;;;;;1.60;0.80;;;19.40;99.90;;;;;;5013244;28;20900;-71
2023/04/28 11:36:43;;;;;;;0.87;0.60;;;19.50;99.90;;;;;;5011834;28;20492;-71
2023/04/28 11:39:10;;;;;;;0.87;0.60;;;19.90;99.90;;;;;;5012854;28;20498;-71
2023/04/28 11:41:45;;;;;;;2.80;1.20;;;20.00;99.90;;;;;;5012854;28;20164;-71
2023/04/28 11:44:15;;;;;;;2.40;1.10;;;20.50;99.90;;;;;;5012787;28;20403;-71
2023/04/28 11:47:01;;;;;;;1.10;0.90;;;20.80;99.90;;;;;;5013513;28;20438;-71
2023/04/28 11:49:46;;;;;;;1.50;0.80;;;21.00;99.90;;;;;;5013202;28;20755;-71
2023/04/28 11:52:12;;;;;;;1.20;0.70;;;21.00;99.90;;;;;;5012630;28;20530;-71
2023/04/28 11:54:38;;;;;;;1.53;0.80;;;21.10;99.90;;;;;;5013075;28;20437;-71
2023/04/28 11:57:05;;;;;;;1.67;1.03;;;20.90;99.90;;;;;;5013499;28;20502;-71
2023/04/28 11:59:33;;;;;;;2.50;1.17;;;21.00;99.90;;;;;;5012759;28;20407;-71
2023/04/28 12:02:01;;;;;;;2.23;1.00;;;21.00;99.90;;;;;;5012546;28;20469;-73
2023/04/28 12:04:35;;;;;;;1.60;1.50;;;20.90;99.90;;;;;;5012905;28;20414;-72
2023/04/28 12:07:15;;;;;;;1.47;1.10;;;21.00;99.90;;;;;;5014901;28;20414;-71
2023/04/28 12:09:42;;;;;;;1.83;0.83;;;20.60;99.90;;;;;;5016449;28;20414;-72
2023/04/28 12:12:10;;;;;;;1.90;0.70;;;20.40;99.90;;;;;;5016255;28;20426;-71
2023/04/28 12:14:55;;;;;;;1.30;0.90;;;20.40;99.90;;;;;;5016289;28;20403;-71
2023/04/28 12:17:40;;;;;;;2.70;1.00;;;20.50;99.90;;;;;;5016414;28;20394;-72
2023/04/28 12:20:11;;;;;;;1.63;0.80;;;20.50;99.90;;;;;;5016074;28;20755;-71
2023/04/28 12:22:49;;;;;;;1.40;0.90;;;20.40;99.90;;;;;;5015674;28;20461;-72
2023/04/28 12:25:16;;;;;;;1.57;1.10;;;20.40;99.90;;;;;;5016028;28;20410;-71
2023/04/28 12:28:06;;;;;;;1.57;0.90;;;20.30;99.90;;;;;;5015888;28;20410;-72
2023/04/28 12:30:33;;;;;;;1.17;0.80;;;20.30;99.90;;;;;;4998425;28;20410;-73
2023/04/28 12:32:59;;;;;;;1.90;0.90;;;20.30;99.90;;;;;;4998167;28;20855;-72
2023/04/28 12:35:26;;;;;;;1.23;0.70;;;20.50;99.90;;;;;;5014237;28;20459;-72
2023/04/28 12:37:54;;;;;;;1.77;0.80;;;20.80;99.90;;;;;;5015621;28;20174;-72
2023/04/28 12:40:19;;;;;;;1.57;1.20;;;20.70;99.90;;;;;;5015722;28;20919;-72
2023/04/28 12:42:45;;;;;;;1.20;1.00;;;20.90;99.90;;;;;;5054276;23;20484;-72
2023/04/28 12:45:11;;;;;;;2.30;0.80;;;21.00;99.90;;;;;;5056071;28;20638;-75